Terminal Aerodrome Forecast
Issued by NWS State College, PA

Home | Current Version | Previous Version | Text Only | Print | Product List | Glossary On
Versions: 1 2 3 4 5 6 7 8 9 10 11 12 13 14 15 16 17 18 19 20 21 22 23 24
000
FTUS41 KCTP 221610 AAA
TAFMDT
TAF AMD
KMDT 221610Z 2216/2312 VRB03KT P6SM FEW100 BKN200
     FM230600 VRB02KT 3SM BR VCFG SCT010=

USA.gov is the U.S. government's official web portal to all federal, state and local government web resources and services.